sensor_id;sensor_type;location;lat;lon;timestamp;P1;durP1;ratioP1;P2;durP2;ratioP2
36233;SDS011;43467;50.890;5.982;2023-07-20T00:01:45;5.38;;;3.60;;
36233;SDS011;43467;50.890;5.982;2023-07-20T00:04:11;9.45;;;3.75;;
36233;SDS011;43467;50.890;5.982;2023-07-20T00:06:38;8.65;;;3.92;;
36233;SDS011;43467;50.890;5.982;2023-07-20T00:09:06;3.90;;;3.08;;
36233;SDS011;43467;50.890;5.982;2023-07-20T00:11:35;8.63;;;3.40;;
36233;SDS011;43467;50.890;5.982;2023-07-20T00:14:01;5.85;;;3.50;;
36233;SDS011;43467;50.890;5.982;2023-07-20T00:16:27;6.30;;;3.08;;
36233;SDS011;43467;50.890;5.982;2023-07-20T00:18:53;6.30;;;3.15;;
36233;SDS011;43467;50.890;5.982;2023-07-20T00:21:19;6.38;;;3.58;;
36233;SDS011;43467;50.890;5.982;2023-07-20T00:23:45;5.13;;;3.13;;
36233;SDS011;43467;50.890;5.982;2023-07-20T00:26:10;7.35;;;3.85;;
36233;SDS011;43467;50.890;5.982;2023-07-20T00:28:37;7.35;;;3.08;;
36233;SDS011;43467;50.890;5.982;2023-07-20T00:31:03;11.20;;;3.45;;
36233;SDS011;43467;50.890;5.982;2023-07-20T00:33:29;6.63;;;3.60;;
36233;SDS011;43467;50.890;5.982;2023-07-20T00:35:54;4.95;;;3.97;;
36233;SDS011;43467;50.890;5.982;2023-07-20T00:38:20;6.45;;;3.90;;
36233;SDS011;43467;50.890;5.982;2023-07-20T00:40:46;5.90;;;3.60;;
36233;SDS011;43467;50.890;5.982;2023-07-20T00:43:13;11.23;;;4.30;;
36233;SDS011;43467;50.890;5.982;2023-07-20T00:45:38;9.18;;;4.30;;
36233;SDS011;43467;50.890;5.982;2023-07-20T00:48:04;7.45;;;3.78;;
36233;SDS011;43467;50.890;5.982;2023-07-20T00:50:32;7.38;;;4.00;;
36233;SDS011;43467;50.890;5.982;2023-07-20T00:52:59;9.00;;;4.43;;
36233;SDS011;43467;50.890;5.982;2023-07-20T00:55:24;10.90;;;4.30;;
36233;SDS011;43467;50.890;5.982;2023-07-20T00:57:52;6.95;;;4.38;;
36233;SDS011;43467;50.890;5.982;2023-07-20T01:00:18;7.13;;;4.28;;
36233;SDS011;43467;50.890;5.982;2023-07-20T01:02:44;9.68;;;4.70;;
36233;SDS011;43467;50.890;5.982;2023-07-20T01:05:10;7.28;;;4.00;;
36233;SDS011;43467;50.890;5.982;2023-07-20T01:13:09;10.73;;;4.60;;
36233;SDS011;43467;50.890;5.982;2023-07-20T01:15:36;5.45;;;3.78;;
36233;SDS011;43467;50.890;5.982;2023-07-20T01:18:02;8.98;;;4.50;;
36233;SDS011;43467;50.890;5.982;2023-07-20T01:20:30;6.88;;;4.35;;
36233;SDS011;43467;50.890;5.982;2023-07-20T01:28:40;5.57;;;4.03;;
36233;SDS011;43467;50.890;5.982;2023-07-20T01:31:36;5.85;;;4.28;;
36233;SDS011;43467;50.890;5.982;2023-07-20T01:34:03;7.80;;;4.30;;
36233;SDS011;43467;50.890;5.982;2023-07-20T01:36:34;10.75;;;4.18;;
36233;SDS011;43467;50.890;5.982;2023-07-20T01:39:02;8.13;;;4.35;;
36233;SDS011;43467;50.890;5.982;2023-07-20T01:41:29;9.32;;;4.38;;
36233;SDS011;43467;50.890;5.982;2023-07-20T01:43:58;10.25;;;4.05;;
36233;SDS011;43467;50.890;5.982;2023-07-20T01:46:24;9.05;;;4.20;;
36233;SDS011;43467;50.890;5.982;2023-07-20T01:48:50;6.90;;;3.38;;
36233;SDS011;43467;50.890;5.982;2023-07-20T01:51:16;10.77;;;3.95;;
36233;SDS011;43467;50.890;5.982;2023-07-20T01:53:43;5.55;;;3.40;;
36233;SDS011;43467;50.890;5.982;2023-07-20T01:56:08;6.57;;;3.42;;
36233;SDS011;43467;50.890;5.982;2023-07-20T01:58:34;4.68;;;3.35;;
36233;SDS011;43467;50.890;5.982;2023-07-20T02:01:00;5.68;;;3.22;;
36233;SDS011;43467;50.890;5.982;2023-07-20T02:03:26;9.45;;;3.97;;
36233;SDS011;43467;50.890;5.982;2023-07-20T02:05:52;9.85;;;4.40;;
36233;SDS011;43467;50.890;5.982;2023-07-20T02:08:18;5.82;;;3.60;;
36233;SDS011;43467;50.890;5.982;2023-07-20T02:10:47;7.72;;;3.25;;
36233;SDS011;43467;50.890;5.982;2023-07-20T02:13:13;6.30;;;3.67;;
36233;SDS011;43467;50.890;5.982;2023-07-20T02:15:42;6.70;;;3.58;;
36233;SDS011;43467;50.890;5.982;2023-07-20T02:18:08;8.95;;;3.58;;
36233;SDS011;43467;50.890;5.982;2023-07-20T02:20:34;7.90;;;3.85;;
36233;SDS011;43467;50.890;5.982;2023-07-20T02:23:00;9.75;;;3.63;;
36233;SDS011;43467;50.890;5.982;2023-07-20T02:25:25;7.88;;;3.80;;
36233;SDS011;43467;50.890;5.982;2023-07-20T02:27:51;9.38;;;3.85;;
36233;SDS011;43467;50.890;5.982;2023-07-20T02:30:17;6.70;;;3.55;;
36233;SDS011;43467;50.890;5.982;2023-07-20T02:32:43;10.25;;;3.50;;
36233;SDS011;43467;50.890;5.982;2023-07-20T02:35:16;8.02;;;3.25;;
36233;SDS011;43467;50.890;5.982;2023-07-20T02:37:42;8.05;;;4.07;;
36233;SDS011;43467;50.890;5.982;2023-07-20T02:40:08;6.75;;;3.47;;
36233;SDS011;43467;50.890;5.982;2023-07-20T02:42:34;10.07;;;3.80;;
36233;SDS011;43467;50.890;5.982;2023-07-20T02:45:01;7.30;;;3.63;;
36233;SDS011;43467;50.890;5.982;2023-07-20T02:47:28;6.32;;;3.15;;
36233;SDS011;43467;50.890;5.982;2023-07-20T02:49:54;6.90;;;3.42;;
36233;SDS011;43467;50.890;5.982;2023-07-20T02:52:20;5.40;;;3.00;;
36233;SDS011;43467;50.890;5.982;2023-07-20T02:54:46;9.73;;;4.00;;
36233;SDS011;43467;50.890;5.982;2023-07-20T02:57:11;7.65;;;3.58;;
36233;SDS011;43467;50.890;5.982;2023-07-20T02:59:37;11.32;;;4.05;;
36233;SDS011;43467;50.890;5.982;2023-07-20T03:02:03;9.52;;;3.90;;
36233;SDS011;43467;50.890;5.982;2023-07-20T03:04:28;9.32;;;4.00;;
36233;SDS011;43467;50.890;5.982;2023-07-20T03:06:54;10.88;;;4.13;;
36233;SDS011;43467;50.890;5.982;2023-07-20T03:09:20;7.88;;;3.75;;
36233;SDS011;43467;50.890;5.982;2023-07-20T03:11:46;9.60;;;3.50;;
36233;SDS011;43467;50.890;5.982;2023-07-20T03:14:11;9.70;;;4.13;;
36233;SDS011;43467;50.890;5.982;2023-07-20T03:16:37;9.65;;;4.15;;
36233;SDS011;43467;50.890;5.982;2023-07-20T03:19:03;9.68;;;4.20;;
36233;SDS011;43467;50.890;5.982;2023-07-20T03:21:30;10.55;;;3.97;;
36233;SDS011;43467;50.890;5.982;2023-07-20T03:23:56;16.92;;;4.13;;
36233;SDS011;43467;50.890;5.982;2023-07-20T03:26:21;11.25;;;4.20;;
36233;SDS011;43467;50.890;5.982;2023-07-20T03:28:47;10.63;;;4.57;;
36233;SDS011;43467;50.890;5.982;2023-07-20T03:31:13;8.68;;;3.90;;
36233;SDS011;43467;50.890;5.982;2023-07-20T03:33:40;13.00;;;4.43;;
36233;SDS011;43467;50.890;5.982;2023-07-20T03:36:05;11.05;;;4.38;;
36233;SDS011;43467;50.890;5.982;2023-07-20T03:38:31;8.95;;;4.13;;
36233;SDS011;43467;50.890;5.982;2023-07-20T03:40:58;12.38;;;4.70;;
36233;SDS011;43467;50.890;5.982;2023-07-20T03:43:25;7.22;;;4.05;;
36233;SDS011;43467;50.890;5.982;2023-07-20T03:45:52;10.88;;;5.25;;
36233;SDS011;43467;50.890;5.982;2023-07-20T03:48:19;9.60;;;4.22;;
36233;SDS011;43467;50.890;5.982;2023-07-20T03:50:46;9.48;;;4.15;;
36233;SDS011;43467;50.890;5.982;2023-07-20T03:53:13;10.48;;;4.47;;
36233;SDS011;43467;50.890;5.982;2023-07-20T03:55:40;11.25;;;5.05;;
36233;SDS011;43467;50.890;5.982;2023-07-20T03:58:06;11.57;;;4.70;;
36233;SDS011;43467;50.890;5.982;2023-07-20T04:00:32;11.00;;;4.78;;
36233;SDS011;43467;50.890;5.982;2023-07-20T04:02:58;15.15;;;5.25;;
36233;SDS011;43467;50.890;5.982;2023-07-20T04:05:24;10.68;;;4.97;;
36233;SDS011;43467;50.890;5.982;2023-07-20T04:07:50;11.82;;;4.57;;
36233;SDS011;43467;50.890;5.982;2023-07-20T04:10:16;17.02;;;5.05;;
36233;SDS011;43467;50.890;5.982;2023-07-20T04:12:42;11.27;;;4.72;;
36233;SDS011;43467;50.890;5.982;2023-07-20T04:15:08;9.10;;;5.07;;
36233;SDS011;43467;50.890;5.982;2023-07-20T04:17:34;10.20;;;4.55;;
36233;SDS011;43467;50.890;5.982;2023-07-20T04:20:00;11.68;;;5.85;;
36233;SDS011;43467;50.890;5.982;2023-07-20T04:22:26;10.10;;;4.97;;
36233;SDS011;43467;50.890;5.982;2023-07-20T04:24:52;13.20;;;4.75;;
36233;SDS011;43467;50.890;5.982;2023-07-20T04:27:17;10.82;;;6.20;;
36233;SDS011;43467;50.890;5.982;2023-07-20T04:29:43;13.48;;;5.03;;
36233;SDS011;43467;50.890;5.982;2023-07-20T04:32:08;11.95;;;5.63;;
36233;SDS011;43467;50.890;5.982;2023-07-20T04:34:34;15.98;;;5.97;;
36233;SDS011;43467;50.890;5.982;2023-07-20T04:37:02;15.07;;;5.75;;
36233;SDS011;43467;50.890;5.982;2023-07-20T04:39:31;12.77;;;6.35;;
36233;SDS011;43467;50.890;5.982;2023-07-20T04:41:57;15.15;;;6.07;;
36233;SDS011;43467;50.890;5.982;2023-07-20T04:44:23;12.82;;;5.55;;
36233;SDS011;43467;50.890;5.982;2023-07-20T04:46:49;9.65;;;5.53;;
36233;SDS011;43467;50.890;5.982;2023-07-20T04:49:15;14.45;;;5.72;;
36233;SDS011;43467;50.890;5.982;2023-07-20T04:51:40;9.38;;;5.80;;
36233;SDS011;43467;50.890;5.982;2023-07-20T04:54:06;15.70;;;6.15;;
36233;SDS011;43467;50.890;5.982;2023-07-20T04:56:33;9.65;;;5.32;;
36233;SDS011;43467;50.890;5.982;2023-07-20T04:58:58;12.43;;;5.75;;
36233;SDS011;43467;50.890;5.982;2023-07-20T05:01:24;14.60;;;5.60;;
36233;SDS011;43467;50.890;5.982;2023-07-20T05:03:49;9.13;;;5.55;;
36233;SDS011;43467;50.890;5.982;2023-07-20T05:06:15;14.93;;;6.63;;
36233;SDS011;43467;50.890;5.982;2023-07-20T05:08:44;11.55;;;5.40;;
36233;SDS011;43467;50.890;5.982;2023-07-20T05:11:10;13.48;;;5.90;;
36233;SDS011;43467;50.890;5.982;2023-07-20T05:13:37;18.40;;;6.70;;
36233;SDS011;43467;50.890;5.982;2023-07-20T05:16:03;19.45;;;7.03;;
36233;SDS011;43467;50.890;5.982;2023-07-20T05:18:28;12.75;;;5.68;;
36233;SDS011;43467;50.890;5.982;2023-07-20T05:20:54;10.45;;;5.20;;
36233;SDS011;43467;50.890;5.982;2023-07-20T05:23:20;16.52;;;6.40;;
36233;SDS011;43467;50.890;5.982;2023-07-20T05:25:46;17.17;;;6.28;;
36233;SDS011;43467;50.890;5.982;2023-07-20T05:28:12;13.10;;;5.88;;
36233;SDS011;43467;50.890;5.982;2023-07-20T05:30:39;16.45;;;6.72;;
36233;SDS011;43467;50.890;5.982;2023-07-20T05:33:05;15.85;;;6.18;;
36233;SDS011;43467;50.890;5.982;2023-07-20T05:35:30;11.93;;;6.97;;
36233;SDS011;43467;50.890;5.982;2023-07-20T05:37:56;15.40;;;6.53;;
36233;SDS011;43467;50.890;5.982;2023-07-20T05:40:22;16.90;;;6.68;;
36233;SDS011;43467;50.890;5.982;2023-07-20T05:42:47;13.65;;;7.05;;
36233;SDS011;43467;50.890;5.982;2023-07-20T05:45:17;18.45;;;7.63;;
36233;SDS011;43467;50.890;5.982;2023-07-20T05:47:43;19.83;;;7.20;;
36233;SDS011;43467;50.890;5.982;2023-07-20T05:50:09;17.00;;;7.82;;
36233;SDS011;43467;50.890;5.982;2023-07-20T05:52:35;16.52;;;7.00;;
36233;SDS011;43467;50.890;5.982;2023-07-20T05:55:03;17.80;;;7.95;;
36233;SDS011;43467;50.890;5.982;2023-07-20T05:57:29;13.23;;;7.57;;
36233;SDS011;43467;50.890;5.982;2023-07-20T05:59:58;19.08;;;8.38;;
36233;SDS011;43467;50.890;5.982;2023-07-20T06:02:24;13.70;;;7.70;;
36233;SDS011;43467;50.890;5.982;2023-07-20T06:04:50;15.88;;;9.20;;
36233;SDS011;43467;50.890;5.982;2023-07-20T06:07:17;23.83;;;9.27;;
36233;SDS011;43467;50.890;5.982;2023-07-20T06:09:43;13.77;;;9.27;;
36233;SDS011;43467;50.890;5.982;2023-07-20T06:12:13;18.67;;;10.38;;
36233;SDS011;43467;50.890;5.982;2023-07-20T06:14:38;15.90;;;9.23;;
36233;SDS011;43467;50.890;5.982;2023-07-20T06:17:04;21.63;;;12.50;;
36233;SDS011;43467;50.890;5.982;2023-07-20T06:19:30;19.73;;;8.90;;
36233;SDS011;43467;50.890;5.982;2023-07-20T06:21:55;16.65;;;11.52;;
36233;SDS011;43467;50.890;5.982;2023-07-20T06:24:21;17.35;;;10.90;;
36233;SDS011;43467;50.890;5.982;2023-07-20T06:26:48;21.98;;;12.07;;
36233;SDS011;43467;50.890;5.982;2023-07-20T06:29:13;17.90;;;10.93;;
36233;SDS011;43467;50.890;5.982;2023-07-20T06:31:39;18.45;;;11.70;;
36233;SDS011;43467;50.890;5.982;2023-07-20T06:34:05;19.52;;;11.27;;
36233;SDS011;43467;50.890;5.982;2023-07-20T06:36:30;13.60;;;10.77;;
36233;SDS011;43467;50.890;5.982;2023-07-20T06:38:59;16.35;;;11.32;;
36233;SDS011;43467;50.890;5.982;2023-07-20T06:41:25;16.83;;;11.50;;
36233;SDS011;43467;50.890;5.982;2023-07-20T06:43:51;22.65;;;12.10;;
36233;SDS011;43467;50.890;5.982;2023-07-20T06:46:17;15.55;;;10.27;;
36233;SDS011;43467;50.890;5.982;2023-07-20T06:48:43;13.90;;;10.82;;
36233;SDS011;43467;50.890;5.982;2023-07-20T06:51:08;14.68;;;10.27;;
36233;SDS011;43467;50.890;5.982;2023-07-20T06:53:34;14.15;;;10.50;;
36233;SDS011;43467;50.890;5.982;2023-07-20T06:56:00;16.98;;;11.20;;
36233;SDS011;43467;50.890;5.982;2023-07-20T06:58:30;17.85;;;11.68;;
36233;SDS011;43467;50.890;5.982;2023-07-20T07:01:05;18.50;;;11.65;;
36233;SDS011;43467;50.890;5.982;2023-07-20T07:03:32;15.35;;;11.52;;
36233;SDS011;43467;50.890;5.982;2023-07-20T07:05:59;12.18;;;9.57;;
36233;SDS011;43467;50.890;5.982;2023-07-20T07:08:25;11.98;;;9.30;;
36233;SDS011;43467;50.890;5.982;2023-07-20T07:10:51;23.48;;;11.10;;
36233;SDS011;43467;50.890;5.982;2023-07-20T07:13:17;15.02;;;9.90;;
36233;SDS011;43467;50.890;5.982;2023-07-20T07:15:44;14.88;;;10.60;;
36233;SDS011;43467;50.890;5.982;2023-07-20T07:18:10;18.85;;;9.88;;
36233;SDS011;43467;50.890;5.982;2023-07-20T07:20:36;15.05;;;9.50;;
36233;SDS011;43467;50.890;5.982;2023-07-20T07:23:02;18.85;;;10.57;;
36233;SDS011;43467;50.890;5.982;2023-07-20T07:25:28;14.38;;;8.40;;
36233;SDS011;43467;50.890;5.982;2023-07-20T07:27:53;13.70;;;9.50;;
36233;SDS011;43467;50.890;5.982;2023-07-20T07:30:21;13.48;;;9.00;;
36233;SDS011;43467;50.890;5.982;2023-07-20T07:32:47;14.25;;;8.68;;
36233;SDS011;43467;50.890;5.982;2023-07-20T07:35:14;14.35;;;8.48;;
36233;SDS011;43467;50.890;5.982;2023-07-20T07:37:39;16.90;;;9.20;;
36233;SDS011;43467;50.890;5.982;2023-07-20T07:40:06;10.90;;;8.18;;
36233;SDS011;43467;50.890;5.982;2023-07-20T07:42:33;12.45;;;7.78;;
36233;SDS011;43467;50.890;5.982;2023-07-20T07:44:58;10.63;;;7.13;;
36233;SDS011;43467;50.890;5.982;2023-07-20T07:47:23;11.50;;;7.65;;
36233;SDS011;43467;50.890;5.982;2023-07-20T07:49:49;11.95;;;7.55;;
36233;SDS011;43467;50.890;5.982;2023-07-20T07:52:15;14.77;;;7.43;;
36233;SDS011;43467;50.890;5.982;2023-07-20T07:54:40;8.80;;;5.47;;
36233;SDS011;43467;50.890;5.982;2023-07-20T07:57:06;10.43;;;4.82;;
36233;SDS011;43467;50.890;5.982;2023-07-20T07:59:32;10.68;;;6.43;;
36233;SDS011;43467;50.890;5.982;2023-07-20T08:02:03;9.73;;;7.28;;
36233;SDS011;43467;50.890;5.982;2023-07-20T08:04:29;11.68;;;8.18;;
36233;SDS011;43467;50.890;5.982;2023-07-20T08:06:55;12.35;;;7.90;;
36233;SDS011;43467;50.890;5.982;2023-07-20T08:09:20;12.60;;;7.57;;
36233;SDS011;43467;50.890;5.982;2023-07-20T08:11:46;9.55;;;7.10;;
36233;SDS011;43467;50.890;5.982;2023-07-20T08:14:13;12.68;;;9.18;;
36233;SDS011;43467;50.890;5.982;2023-07-20T08:16:39;12.75;;;6.38;;
36233;SDS011;43467;50.890;5.982;2023-07-20T08:19:04;7.43;;;4.82;;
36233;SDS011;43467;50.890;5.982;2023-07-20T08:21:30;8.57;;;4.50;;
36233;SDS011;43467;50.890;5.982;2023-07-20T08:23:55;5.10;;;3.22;;
36233;SDS011;43467;50.890;5.982;2023-07-20T08:26:21;7.13;;;3.50;;
36233;SDS011;43467;50.890;5.982;2023-07-20T08:28:48;6.80;;;3.40;;
36233;SDS011;43467;50.890;5.982;2023-07-20T08:31:14;7.30;;;3.70;;
36233;SDS011;43467;50.890;5.982;2023-07-20T08:33:39;10.88;;;4.72;;
36233;SDS011;43467;50.890;5.982;2023-07-20T08:36:05;8.93;;;4.70;;
36233;SDS011;43467;50.890;5.982;2023-07-20T08:38:31;6.22;;;4.40;;
36233;SDS011;43467;50.890;5.982;2023-07-20T08:40:56;8.27;;;4.03;;
36233;SDS011;43467;50.890;5.982;2023-07-20T08:43:24;5.90;;;3.55;;
36233;SDS011;43467;50.890;5.982;2023-07-20T08:45:50;4.15;;;2.90;;
36233;SDS011;43467;50.890;5.982;2023-07-20T08:48:19;2.85;;;2.10;;
36233;SDS011;43467;50.890;5.982;2023-07-20T08:50:46;5.05;;;2.80;;
36233;SDS011;43467;50.890;5.982;2023-07-20T08:53:16;3.78;;;3.15;;
36233;SDS011;43467;50.890;5.982;2023-07-20T08:55:44;5.38;;;2.67;;
36233;SDS011;43467;50.890;5.982;2023-07-20T08:58:12;4.65;;;3.10;;
36233;SDS011;43467;50.890;5.982;2023-07-20T09:00:39;3.47;;;2.20;;
36233;SDS011;43467;50.890;5.982;2023-07-20T09:03:06;5.20;;;2.35;;
36233;SDS011;43467;50.890;5.982;2023-07-20T09:05:33;3.67;;;2.55;;
36233;SDS011;43467;50.890;5.982;2023-07-20T09:08:00;3.78;;;2.30;;
36233;SDS011;43467;50.890;5.982;2023-07-20T09:10:28;4.93;;;3.45;;
36233;SDS011;43467;50.890;5.982;2023-07-20T09:12:54;7.00;;;3.22;;
36233;SDS011;43467;50.890;5.982;2023-07-20T09:15:21;5.85;;;2.92;;
36233;SDS011;43467;50.890;5.982;2023-07-20T09:17:47;4.63;;;3.15;;
36233;SDS011;43467;50.890;5.982;2023-07-20T09:20:14;6.20;;;2.78;;
36233;SDS011;43467;50.890;5.982;2023-07-20T09:22:41;4.07;;;3.10;;
36233;SDS011;43467;50.890;5.982;2023-07-20T09:25:08;5.00;;;3.28;;
36233;SDS011;43467;50.890;5.982;2023-07-20T09:27:38;4.60;;;3.63;;
36233;SDS011;43467;50.890;5.982;2023-07-20T09:30:05;4.13;;;3.20;;
36233;SDS011;43467;50.890;5.982;2023-07-20T09:32:40;7.03;;;3.72;;
36233;SDS011;43467;50.890;5.982;2023-07-20T09:35:18;8.20;;;3.80;;
36233;SDS011;43467;50.890;5.982;2023-07-20T09:37:52;5.03;;;3.10;;
36233;SDS011;43467;50.890;5.982;2023-07-20T09:40:27;3.92;;;3.30;;
36233;SDS011;43467;50.890;5.982;2023-07-20T09:42:53;4.38;;;3.38;;
36233;SDS011;43467;50.890;5.982;2023-07-20T09:48:23;5.93;;;3.22;;
36233;SDS011;43467;50.890;5.982;2023-07-20T09:50:51;5.50;;;3.80;;
36233;SDS011;43467;50.890;5.982;2023-07-20T09:53:18;5.43;;;3.45;;
36233;SDS011;43467;50.890;5.982;2023-07-20T09:55:44;7.57;;;3.38;;
36233;SDS011;43467;50.890;5.982;2023-07-20T09:58:11;5.32;;;2.97;;
36233;SDS011;43467;50.890;5.982;2023-07-20T10:00:37;5.60;;;3.92;;
36233;SDS011;43467;50.890;5.982;2023-07-20T10:03:04;5.78;;;3.88;;
36233;SDS011;43467;50.890;5.982;2023-07-20T10:05:32;5.20;;;3.30;;
36233;SDS011;43467;50.890;5.982;2023-07-20T10:08:00;3.78;;;3.13;;
36233;SDS011;43467;50.890;5.982;2023-07-20T10:10:27;4.85;;;3.10;;
36233;SDS011;43467;50.890;5.982;2023-07-20T10:12:54;5.20;;;3.65;;
36233;SDS011;43467;50.890;5.982;2023-07-20T10:15:28;6.60;;;4.28;;
36233;SDS011;43467;50.890;5.982;2023-07-20T10:18:01;6.60;;;3.85;;
36233;SDS011;43467;50.890;5.982;2023-07-20T10:20:39;5.22;;;3.83;;
36233;SDS011;43467;50.890;5.982;2023-07-20T10:23:08;4.72;;;3.65;;
36233;SDS011;43467;50.890;5.982;2023-07-20T10:25:35;4.13;;;3.03;;
36233;SDS011;43467;50.890;5.982;2023-07-20T10:28:06;5.03;;;3.15;;
36233;SDS011;43467;50.890;5.982;2023-07-20T10:30:35;4.28;;;3.67;;
36233;SDS011;43467;50.890;5.982;2023-07-20T10:33:04;6.10;;;3.78;;
36233;SDS011;43467;50.890;5.982;2023-07-20T10:35:31;5.45;;;3.95;;
36233;SDS011;43467;50.890;5.982;2023-07-20T10:38:16;3.88;;;3.33;;
36233;SDS011;43467;50.890;5.982;2023-07-20T10:40:41;5.25;;;3.45;;
36233;SDS011;43467;50.890;5.982;2023-07-20T10:43:07;9.02;;;4.10;;
36233;SDS011;43467;50.890;5.982;2023-07-20T10:45:35;6.57;;;3.78;;
36233;SDS011;43467;50.890;5.982;2023-07-20T10:48:14;8.75;;;3.70;;
36233;SDS011;43467;50.890;5.982;2023-07-20T10:50:44;5.07;;;3.25;;
36233;SDS011;43467;50.890;5.982;2023-07-20T10:53:11;4.95;;;3.40;;
36233;SDS011;43467;50.890;5.982;2023-07-20T10:55:40;5.22;;;3.50;;
36233;SDS011;43467;50.890;5.982;2023-07-20T10:58:08;4.65;;;3.53;;
36233;SDS011;43467;50.890;5.982;2023-07-20T11:00:35;3.80;;;3.40;;
36233;SDS011;43467;50.890;5.982;2023-07-20T11:03:01;4.88;;;2.38;;
36233;SDS011;43467;50.890;5.982;2023-07-20T11:05:37;3.38;;;2.28;;
36233;SDS011;43467;50.890;5.982;2023-07-20T11:08:04;3.95;;;3.17;;
36233;SDS011;43467;50.890;5.982;2023-07-20T11:10:31;6.65;;;3.55;;
36233;SDS011;43467;50.890;5.982;2023-07-20T11:15:45;7.43;;;4.13;;
36233;SDS011;43467;50.890;5.982;2023-07-20T11:18:13;5.97;;;3.35;;
36233;SDS011;43467;50.890;5.982;2023-07-20T11:20:39;3.58;;;3.20;;
36233;SDS011;43467;50.890;5.982;2023-07-20T11:23:05;5.47;;;3.08;;
36233;SDS011;43467;50.890;5.982;2023-07-20T11:25:37;5.10;;;3.00;;
36233;SDS011;43467;50.890;5.982;2023-07-20T11:28:08;7.05;;;3.10;;
36233;SDS011;43467;50.890;5.982;2023-07-20T11:30:36;3.78;;;2.83;;
36233;SDS011;43467;50.890;5.982;2023-07-20T11:33:03;4.72;;;2.60;;
36233;SDS011;43467;50.890;5.982;2023-07-20T11:35:29;3.88;;;3.00;;
36233;SDS011;43467;50.890;5.982;2023-07-20T11:37:55;5.68;;;2.67;;
36233;SDS011;43467;50.890;5.982;2023-07-20T11:40:22;5.50;;;2.78;;
36233;SDS011;43467;50.890;5.982;2023-07-20T11:42:47;2.70;;;2.15;;
36233;SDS011;43467;50.890;5.982;2023-07-20T11:45:15;4.47;;;2.30;;
36233;SDS011;43467;50.890;5.982;2023-07-20T11:47:42;3.50;;;2.45;;
36233;SDS011;43467;50.890;5.982;2023-07-20T11:50:08;2.20;;;2.00;;
36233;SDS011;43467;50.890;5.982;2023-07-20T11:52:34;3.70;;;2.22;;
36233;SDS011;43467;50.890;5.982;2023-07-20T11:55:01;3.88;;;2.45;;
36233;SDS011;43467;50.890;5.982;2023-07-20T11:57:28;4.80;;;2.33;;
36233;SDS011;43467;50.890;5.982;2023-07-20T11:59:54;2.67;;;2.08;;
36233;SDS011;43467;50.890;5.982;2023-07-20T12:02:26;4.68;;;2.60;;
36233;SDS011;43467;50.890;5.982;2023-07-20T12:04:54;4.38;;;2.08;;
36233;SDS011;43467;50.890;5.982;2023-07-20T12:07:21;4.45;;;2.10;;
36233;SDS011;43467;50.890;5.982;2023-07-20T12:15:19;3.17;;;1.70;;
36233;SDS011;43467;50.890;5.982;2023-07-20T12:17:46;2.15;;;1.60;;
36233;SDS011;43467;50.890;5.982;2023-07-20T12:20:24;1.90;;;1.70;;
36233;SDS011;43467;50.890;5.982;2023-07-20T12:22:51;3.08;;;1.92;;
36233;SDS011;43467;50.890;5.982;2023-07-20T12:25:17;2.72;;;1.80;;
36233;SDS011;43467;50.890;5.982;2023-07-20T12:27:47;2.05;;;1.65;;
36233;SDS011;43467;50.890;5.982;2023-07-20T12:30:13;1.50;;;1.40;;
36233;SDS011;43467;50.890;5.982;2023-07-20T12:32:39;2.63;;;1.90;;
36233;SDS011;43467;50.890;5.982;2023-07-20T12:35:05;3.30;;;1.92;;
36233;SDS011;43467;50.890;5.982;2023-07-20T12:37:31;2.10;;;1.63;;
36233;SDS011;43467;50.890;5.982;2023-07-20T12:39:57;2.55;;;1.67;;
36233;SDS011;43467;50.890;5.982;2023-07-20T12:42:22;2.60;;;1.80;;
36233;SDS011;43467;50.890;5.982;2023-07-20T12:44:49;2.95;;;1.70;;
36233;SDS011;43467;50.890;5.982;2023-07-20T12:47:15;2.33;;;1.80;;
36233;SDS011;43467;50.890;5.982;2023-07-20T12:49:42;3.00;;;1.60;;
36233;SDS011;43467;50.890;5.982;2023-07-20T12:52:10;2.58;;;1.67;;
36233;SDS011;43467;50.890;5.982;2023-07-20T12:54:36;3.03;;;1.92;;
36233;SDS011;43467;50.890;5.982;2023-07-20T12:57:05;2.65;;;1.42;;
36233;SDS011;43467;50.890;5.982;2023-07-20T12:59:31;2.28;;;1.90;;
36233;SDS011;43467;50.890;5.982;2023-07-20T13:01:56;3.20;;;1.65;;
36233;SDS011;43467;50.890;5.982;2023-07-20T13:04:22;2.85;;;1.50;;
36233;SDS011;43467;50.890;5.982;2023-07-20T13:06:48;2.20;;;2.00;;
36233;SDS011;43467;50.890;5.982;2023-07-20T13:09:13;2.00;;;1.80;;
36233;SDS011;43467;50.890;5.982;2023-07-20T13:11:39;2.80;;;1.40;;
36233;SDS011;43467;50.890;5.982;2023-07-20T13:14:04;3.42;;;1.33;;
36233;SDS011;43467;50.890;5.982;2023-07-20T13:16:30;2.65;;;1.40;;
36233;SDS011;43467;50.890;5.982;2023-07-20T13:18:55;1.40;;;1.25;;
36233;SDS011;43467;50.890;5.982;2023-07-20T13:21:21;1.40;;;1.30;;
36233;SDS011;43467;50.890;5.982;2023-07-20T13:23:48;2.03;;;1.50;;
36233;SDS011;43467;50.890;5.982;2023-07-20T13:26:14;4.28;;;1.58;;
36233;SDS011;43467;50.890;5.982;2023-07-20T13:28:40;2.05;;;1.63;;
36233;SDS011;43467;50.890;5.982;2023-07-20T13:31:06;2.10;;;1.20;;
36233;SDS011;43467;50.890;5.982;2023-07-20T13:33:33;1.88;;;1.50;;
36233;SDS011;43467;50.890;5.982;2023-07-20T13:36:00;1.25;;;1.15;;
36233;SDS011;43467;50.890;5.982;2023-07-20T13:38:25;2.97;;;1.50;;
36233;SDS011;43467;50.890;5.982;2023-07-20T13:40:51;2.90;;;1.52;;
36233;SDS011;43467;50.890;5.982;2023-07-20T13:43:17;2.53;;;1.60;;
36233;SDS011;43467;50.890;5.982;2023-07-20T13:45:43;2.15;;;1.45;;
36233;SDS011;43467;50.890;5.982;2023-07-20T13:48:08;3.78;;;1.65;;
36233;SDS011;43467;50.890;5.982;2023-07-20T13:50:36;2.00;;;1.40;;
36233;SDS011;43467;50.890;5.982;2023-07-20T13:53:04;1.50;;;1.30;;
36233;SDS011;43467;50.890;5.982;2023-07-20T13:55:30;1.92;;;1.33;;
36233;SDS011;43467;50.890;5.982;2023-07-20T13:57:58;5.47;;;1.58;;
36233;SDS011;43467;50.890;5.982;2023-07-20T14:00:24;2.85;;;1.30;;
36233;SDS011;43467;50.890;5.982;2023-07-20T14:02:52;3.35;;;1.40;;
36233;SDS011;43467;50.890;5.982;2023-07-20T14:05:18;2.30;;;1.60;;
36233;SDS011;43467;50.890;5.982;2023-07-20T14:07:44;3.38;;;1.33;;
36233;SDS011;43467;50.890;5.982;2023-07-20T14:10:19;2.17;;;1.40;;
36233;SDS011;43467;50.890;5.982;2023-07-20T14:12:45;2.90;;;1.45;;
36233;SDS011;43467;50.890;5.982;2023-07-20T14:15:11;2.08;;;1.23;;
36233;SDS011;43467;50.890;5.982;2023-07-20T14:17:36;1.83;;;1.30;;
36233;SDS011;43467;50.890;5.982;2023-07-20T14:20:02;2.35;;;1.35;;
36233;SDS011;43467;50.890;5.982;2023-07-20T14:22:31;2.50;;;1.45;;
36233;SDS011;43467;50.890;5.982;2023-07-20T14:24:56;1.13;;;1.02;;
36233;SDS011;43467;50.890;5.982;2023-07-20T14:27:23;1.08;;;0.85;;
36233;SDS011;43467;50.890;5.982;2023-07-20T14:29:49;1.52;;;1.25;;
36233;SDS011;43467;50.890;5.982;2023-07-20T14:32:15;4.55;;;1.50;;
36233;SDS011;43467;50.890;5.982;2023-07-20T14:34:40;2.85;;;1.52;;
36233;SDS011;43467;50.890;5.982;2023-07-20T14:37:06;1.73;;;1.40;;
36233;SDS011;43467;50.890;5.982;2023-07-20T14:39:32;1.65;;;1.25;;
36233;SDS011;43467;50.890;5.982;2023-07-20T14:41:57;2.78;;;1.10;;
36233;SDS011;43467;50.890;5.982;2023-07-20T14:44:23;1.65;;;1.20;;
36233;SDS011;43467;50.890;5.982;2023-07-20T14:46:49;2.67;;;1.00;;
36233;SDS011;43467;50.890;5.982;2023-07-20T14:49:14;2.83;;;1.10;;
36233;SDS011;43467;50.890;5.982;2023-07-20T14:51:39;2.78;;;1.58;;
36233;SDS011;43467;50.890;5.982;2023-07-20T14:54:11;1.70;;;1.48;;
36233;SDS011;43467;50.890;5.982;2023-07-20T14:56:37;2.38;;;1.70;;
36233;SDS011;43467;50.890;5.982;2023-07-20T14:59:03;2.90;;;2.13;;
36233;SDS011;43467;50.890;5.982;2023-07-20T15:01:30;2.33;;;1.58;;
36233;SDS011;43467;50.890;5.982;2023-07-20T15:03:56;4.18;;;1.60;;